Time;durP1;ratioP1;P1;durP2;ratioP2;P2;SDS_P1;SDS_P2;PMS_P1;PMS_P2;Temp;Humidity;BMP_temperature;BMP_pressure;BME280_temperature;BME280_humidity;BME280_pressure;Samples;Min_cycle;Max_cycle;Signal;HPM_P1;HPM_P2
2023/10/24 00:00:43;;;;;;;5.90;2.60;;;;;;;9.58;84.58;95633.91;106769;1274;22547;-82
2023/10/24 00:03:25;;;;;;;4.60;2.70;;;;;;;9.62;84.88;95631.04;106737;1274;25327;-82
2023/10/24 00:05:53;;;;;;;3.10;2.50;;;;;;;9.70;84.29;95629.17;106704;1274;22532;-82
2023/10/24 00:08:22;;;;;;;4.60;3.30;;;;;;;9.73;84.61;95625.27;106585;1274;25371;-82
2023/10/24 00:11:02;;;;;;;4.00;3.40;;;;;;;9.74;84.41;95624.20;106778;1274;25245;-83
2023/10/24 00:13:30;;;;;;;5.60;3.50;;;;;;;9.70;84.50;95624.61;106759;1274;22516;-82
2023/10/24 00:15:58;;;;;;;4.60;3.20;;;;;;;9.79;84.74;95621.48;106708;1274;22651;-82
2023/10/24 00:18:27;;;;;;;7.70;3.90;;;;;;;9.80;84.03;95624.64;106707;1274;22527;-82
2023/10/24 00:20:56;;;;;;;7.90;4.10;;;;;;;9.78;84.24;95628.88;106779;1274;22534;-82
2023/10/24 00:23:24;;;;;;;8.20;5.80;;;;;;;9.84;84.07;95624.23;106737;1274;24368;-82
2023/10/24 00:25:52;;;;;;;4.70;3.20;;;;;;;9.84;83.57;95622.13;106665;1274;22539;-82
2023/10/24 00:28:20;;;;;;;6.10;1.90;;;;;;;9.87;83.91;95619.96;106832;1274;22531;-82
2023/10/24 00:30:49;;;;;;;3.80;2.70;;;;;;;9.88;83.87;95614.34;106869;1274;22579;-82
2023/10/24 00:33:18;;;;;;;4.00;2.50;;;;;;;9.89;83.78;95609.56;106717;1274;25433;-82
2023/10/24 00:35:46;;;;;;;5.30;2.50;;;;;;;9.81;83.60;95613.90;106730;1274;22641;-80
2023/10/24 00:38:14;;;;;;;5.20;2.70;;;;;;;9.80;84.35;95611.82;106717;1274;22908;-82
2023/10/24 00:40:42;;;;;;;3.70;2.20;;;;;;;9.87;84.42;95599.58;106649;1260;25569;-82
2023/10/24 00:43:11;;;;;;;4.90;3.20;;;;;;;9.85;84.01;95602.95;106722;1274;22531;-82
2023/10/24 00:45:41;;;;;;;5.70;3.30;;;;;;;9.87;84.09;95603.63;106772;1274;22524;-82
2023/10/24 00:48:10;;;;;;;7.00;3.00;;;;;;;9.84;83.22;95603.84;106852;1274;22569;-82
2023/10/24 00:50:38;;;;;;;3.60;2.50;;;;;;;9.83;83.61;95599.47;106780;1274;23084;-82
2023/10/24 00:53:07;;;;;;;3.50;2.70;;;;;;;9.90;84.30;95594.43;106687;1274;25559;-81
2023/10/24 00:55:38;;;;;;;2.90;1.70;;;;;;;10.02;84.11;95598.11;107094;1273;25421;-82
2023/10/24 00:58:09;;;;;;;9.30;4.90;;;;;;;10.06;83.98;95595.41;106842;1274;22542;-82
2023/10/24 01:00:41;;;;;;;9.90;4.70;;;;;;;10.07;83.70;95593.80;106720;1274;24284;-82
2023/10/24 01:03:10;;;;;;;6.90;4.00;;;;;;;10.09;83.22;95596.58;106825;1274;24269;-82
2023/10/24 01:05:40;;;;;;;8.40;5.50;;;;;;;10.00;83.07;95596.55;106719;1274;22637;-82
2023/10/24 01:08:09;;;;;;;10.10;5.40;;;;;;;9.96;83.30;95590.65;106757;1274;25436;-82
2023/10/24 01:10:37;;;;;;;7.50;4.80;;;;;;;9.93;83.18;95589.30;106859;1274;22569;-82
2023/10/24 01:13:08;;;;;;;9.90;4.80;;;;;;;9.91;83.25;95584.58;106842;1261;22535;-82
2023/10/24 01:15:37;;;;;;;8.90;4.80;;;;;;;9.81;83.48;95583.70;106758;1274;22625;-82
2023/10/24 01:18:05;;;;;;;8.50;4.70;;;;;;;9.71;83.65;95581.73;106833;1274;22539;-82
2023/10/24 01:20:34;;;;;;;8.20;4.70;;;;;;;9.59;83.86;95588.95;106751;1274;22528;-82
2023/10/24 01:23:02;;;;;;;5.60;3.90;;;;;;;9.51;83.88;95582.38;106785;1274;25380;-82
2023/10/24 01:25:30;;;;;;;3.80;2.40;;;;;;;9.43;83.56;95580.21;106826;1262;23380;-82
2023/10/24 01:28:00;;;;;;;3.40;1.90;;;;;;;9.38;84.59;95588.71;106768;1274;22529;-83
2023/10/24 01:30:28;;;;;;;5.20;3.70;;;;;;;9.34;84.50;95586.15;106820;1259;22527;-82
2023/10/24 01:32:56;;;;;;;7.10;3.10;;;;;;;9.30;84.93;95581.46;106699;1274;24399;-82
2023/10/24 01:35:24;;;;;;;4.40;2.70;;;;;;;9.27;84.94;95580.62;106684;1274;22540;-82
2023/10/24 01:37:52;;;;;;;3.30;2.20;;;;;;;9.26;85.28;95586.95;106764;1274;25504;-82
2023/10/24 01:40:21;;;;;;;4.60;3.20;;;;;;;9.23;86.10;95578.39;106736;1274;22518;-81
2023/10/24 01:42:49;;;;;;;3.10;2.60;;;;;;;9.22;86.28;95576.48;106716;1274;24226;-82
2023/10/24 01:45:17;;;;;;;3.00;2.40;;;;;;;9.23;86.29;95581.56;106857;1274;24479;-83
2023/10/24 01:47:46;;;;;;;5.10;3.40;;;;;;;9.28;86.62;95577.27;106725;1274;22556;-83
2023/10/24 01:50:14;;;;;;;6.30;3.50;;;;;;;9.30;86.42;95580.59;106691;1274;25364;-83
2023/10/24 01:52:43;;;;;;;7.90;4.60;;;;;;;9.28;85.99;95582.52;106739;1274;22650;-83
2023/10/24 01:55:12;;;;;;;6.70;4.60;;;;;;;9.33;86.11;95587.22;106758;1274;22532;-83
2023/10/24 01:57:40;;;;;;;4.20;2.80;;;;;;;9.33;85.96;95581.23;106722;1274;22661;-83
2023/10/24 02:00:09;;;;;;;5.00;2.10;;;;;;;9.39;86.01;95573.77;106839;1274;25373;-83
2023/10/24 02:02:40;;;;;;;6.50;4.20;;;;;;;9.43;85.91;95576.19;106755;1274;24040;-83
2023/10/24 02:05:09;;;;;;;7.30;5.60;;;;;;;9.49;85.87;95576.79;106819;1274;22538;-81
2023/10/24 02:07:38;;;;;;;17.30;13.50;;;;;;;9.49;85.97;95575.04;106706;1274;25325;-83
2023/10/24 02:10:07;;;;;;;14.90;10.60;;;;;;;9.53;86.00;95573.23;106783;1274;24265;-83
2023/10/24 02:12:36;;;;;;;10.30;7.70;;;;;;;9.59;86.05;95575.60;106799;1274;25333;-83
2023/10/24 02:15:05;;;;;;;9.60;5.70;;;;;;;9.67;86.10;95569.69;106783;1274;22646;-83
2023/10/24 02:17:33;;;;;;;13.50;10.40;;;;;;;9.68;85.53;95571.06;106853;1274;22536;-83
2023/10/24 02:20:01;;;;;;;11.50;8.80;;;;;;;9.66;85.20;95574.09;106843;1274;25417;-83
2023/10/24 02:22:29;;;;;;;9.10;6.80;;;;;;;9.68;85.14;95571.78;106763;1274;22554;-83
2023/10/24 02:24:57;;;;;;;8.30;4.10;;;;;;;9.71;84.92;95564.70;106751;1251;25492;-83
2023/10/24 02:27:26;;;;;;;4.40;3.00;;;;;;;9.71;84.67;95569.61;106811;1274;24233;-83
2023/10/24 02:29:55;;;;;;;6.70;2.90;;;;;;;9.67;84.37;95568.62;106759;1274;24357;-83
2023/10/24 02:32:23;;;;;;;4.60;1.20;;;;;;;9.56;83.97;95571.95;106772;1274;24221;-82
2023/10/24 02:34:51;;;;;;;3.30;1.70;;;;;;;9.53;84.92;95576.21;106744;1274;25532;-82
2023/10/24 02:37:20;;;;;;;3.60;1.90;;;;;;;9.60;85.38;95577.52;107018;1274;24291;-83
2023/10/24 02:39:48;;;;;;;7.70;4.60;;;;;;;9.60;84.54;95583.85;106736;1274;23936;-82
2023/10/24 02:42:16;;;;;;;5.20;2.60;;;;;;;9.56;84.41;95585.30;106960;1274;22566;-82
2023/10/24 02:44:48;;;;;;;4.50;3.20;;;;;;;9.50;84.47;95592.05;106734;1274;22635;-82
2023/10/24 02:47:16;;;;;;;4.10;2.20;;;;;;;9.44;84.20;95600.75;106930;1274;22529;-82
2023/10/24 02:49:45;;;;;;;2.80;1.80;;;;;;;9.37;84.31;95602.78;106667;1274;22523;-82
2023/10/24 02:52:13;;;;;;;2.50;1.30;;;;;;;9.30;84.37;95596.36;106590;1274;22530;-82
2023/10/24 02:54:41;;;;;;;1.50;1.20;;;;;;;9.31;85.37;95592.33;106784;1274;24364;-82
2023/10/24 02:57:09;;;;;;;1.60;1.20;;;;;;;9.30;85.06;95600.25;106705;1274;22575;-83
2023/10/24 02:59:38;;;;;;;2.60;2.10;;;;;;;9.25;85.98;95611.20;106693;1274;22542;-83
2023/10/24 03:02:06;;;;;;;2.30;1.30;;;;;;;9.25;85.88;95609.61;106820;1274;22573;-82
2023/10/24 03:04:35;;;;;;;1.70;1.30;;;;;;;9.24;85.93;95617.70;106681;1274;22531;-83
2023/10/24 03:07:04;;;;;;;4.30;2.50;;;;;;;9.26;86.47;95615.21;106613;1265;25419;-82
2023/10/24 03:09:33;;;;;;;7.20;5.40;;;;;;;9.21;86.05;95615.81;106861;1274;26767;-83
2023/10/24 03:12:01;;;;;;;8.20;5.00;;;;;;;9.18;86.41;95608.47;106690;1274;22793;-83
2023/10/24 03:14:29;;;;;;;6.90;4.80;;;;;;;9.21;86.64;95610.36;106730;1274;23016;-83
2023/10/24 03:16:57;;;;;;;9.60;4.60;;;;;;;9.24;86.31;95611.55;106965;1274;22534;-82
2023/10/24 03:19:27;;;;;;;5.60;4.20;;;;;;;9.25;86.63;95607.16;106719;1274;24633;-83
2023/10/24 03:21:55;;;;;;;4.20;3.70;;;;;;;9.28;86.40;95602.89;106747;1274;24239;-83
2023/10/24 03:24:23;;;;;;;7.00;3.30;;;;;;;9.33;86.30;95599.67;106764;1274;22586;-83
2023/10/24 03:26:52;;;;;;;5.40;2.80;;;;;;;9.37;86.07;95592.59;106693;1270;25256;-82
2023/10/24 03:29:20;;;;;;;4.10;2.40;;;;;;;9.41;86.00;95589.90;106714;1274;22522;-81
2023/10/24 03:31:48;;;;;;;2.90;2.50;;;;;;;9.48;86.02;95588.94;106716;1274;25476;-82
2023/10/24 03:34:16;;;;;;;4.30;2.10;;;;;;;9.51;85.87;95592.39;106774;1274;22527;-82
2023/10/24 03:36:44;;;;;;;3.60;2.20;;;;;;;9.53;86.25;95594.30;106810;1274;22634;-82
2023/10/24 03:39:12;;;;;;;3.50;2.30;;;;;;;9.60;86.25;95594.20;106894;1274;24397;-81
2023/10/24 03:41:40;;;;;;;7.10;2.80;;;;;;;9.65;86.11;95597.64;106765;1274;22540;-83
2023/10/24 03:44:09;;;;;;;6.00;2.40;;;;;;;9.75;85.99;95593.80;106850;1274;22812;-82
2023/10/24 03:46:37;;;;;;;5.20;2.40;;;;;;;9.81;85.82;95580.70;106779;1274;25260;-82
2023/10/24 03:49:05;;;;;;;6.20;4.50;;;;;;;9.86;85.47;95580.98;106795;1274;25383;-83
2023/10/24 03:51:33;;;;;;;8.90;3.20;;;;;;;9.90;85.17;95580.56;106783;1274;22526;-83
2023/10/24 03:54:03;;;;;;;4.10;2.60;;;;;;;9.92;85.22;95577.01;106734;1274;22523;-83
2023/10/24 03:56:32;;;;;;;7.30;3.90;;;;;;;9.91;85.21;95583.02;106768;1274;22509;-83
2023/10/24 03:59:00;;;;;;;7.60;3.80;;;;;;;9.93;85.36;95582.10;106789;1273;24246;-83
2023/10/24 04:01:29;;;;;;;6.50;3.30;;;;;;;9.92;85.39;95577.70;106934;1253;23768;-83
2023/10/24 04:03:57;;;;;;;10.30;5.60;;;;;;;9.94;85.43;95584.89;106735;1274;24264;-83
2023/10/24 04:06:25;;;;;;;8.00;4.30;;;;;;;10.04;85.61;95581.21;106753;1274;25579;-83
2023/10/24 04:08:53;;;;;;;6.80;4.10;;;;;;;10.08;85.41;95587.81;106821;1262;25570;-83
2023/10/24 04:11:22;;;;;;;7.70;3.80;;;;;;;10.10;85.35;95576.52;106723;1274;24378;-83
2023/10/24 04:13:50;;;;;;;4.50;3.00;;;;;;;10.15;85.09;95575.05;106774;1274;23893;-83
2023/10/24 04:16:18;;;;;;;5.80;3.60;;;;;;;10.23;85.42;95572.63;106767;1274;22928;-81
2023/10/24 04:18:47;;;;;;;5.20;3.30;;;;;;;10.30;85.45;95561.98;106756;1274;24285;-83
2023/10/24 04:21:15;;;;;;;7.20;3.00;;;;;;;10.33;84.94;95562.63;106738;1274;24225;-83
2023/10/24 04:23:44;;;;;;;6.70;3.90;;;;;;;10.35;85.26;95563.13;106832;1274;25269;-81
2023/10/24 04:26:12;;;;;;;8.50;4.60;;;;;;;10.40;85.22;95567.42;106862;1274;25289;-83
2023/10/24 04:28:40;;;;;;;7.80;4.80;;;;;;;10.42;84.79;95558.25;106776;1274;22543;-83
2023/10/24 04:31:10;;;;;;;7.20;4.20;;;;;;;10.44;84.55;95555.73;106731;1274;26641;-83
2023/10/24 04:33:40;;;;;;;10.90;4.80;;;;;;;10.45;84.49;95549.58;106784;1274;22534;-82
2023/10/24 04:36:12;;;;;;;7.00;4.10;;;;;;;10.41;84.18;95542.08;106680;1274;24341;-83
2023/10/24 04:38:40;;;;;;;7.50;4.00;;;;;;;10.35;84.33;95531.48;106728;1274;24225;-83
2023/10/24 04:41:09;;;;;;;7.40;4.60;;;;;;;10.30;84.51;95526.11;106728;1274;22517;-82
2023/10/24 04:43:37;;;;;;;5.70;4.00;;;;;;;10.26;84.63;95525.66;106764;1274;22624;-82
2023/10/24 04:46:05;;;;;;;9.50;3.80;;;;;;;10.20;84.94;95518.70;106846;1274;22529;-82
2023/10/24 04:48:33;;;;;;;7.30;3.60;;;;;;;10.18;85.31;95520.86;106965;1274;22523;-82
2023/10/24 04:51:03;;;;;;;6.70;4.10;;;;;;;10.15;85.41;95523.53;106791;1251;24282;-82
2023/10/24 04:53:31;;;;;;;7.40;4.60;;;;;;;10.12;85.53;95518.84;106755;1274;22530;-82
2023/10/24 04:55:59;;;;;;;9.10;5.20;;;;;;;10.11;85.75;95510.08;106841;1274;22523;-82
2023/10/24 04:58:27;;;;;;;8.10;5.30;;;;;;;10.11;85.60;95502.18;106722;1274;22530;-81
2023/10/24 05:00:55;;;;;;;8.00;4.00;;;;;;;10.08;85.86;95505.21;106756;1274;22580;-82
2023/10/24 05:03:23;;;;;;;7.60;5.30;;;;;;;10.07;85.87;95510.15;106781;1274;22750;-82
2023/10/24 05:05:52;;;;;;;10.10;6.00;;;;;;;10.09;86.13;95517.15;106759;1274;22515;-82
2023/10/24 05:08:20;;;;;;;7.90;5.40;;;;;;;10.10;86.26;95514.67;106852;1274;25239;-82
2023/10/24 05:10:49;;;;;;;9.80;6.80;;;;;;;10.09;86.59;95521.19;106708;1274;22514;-82
2023/10/24 05:13:18;;;;;;;97.20;61.50;;;;;;;10.12;86.21;95528.34;106843;1274;22528;-82
2023/10/24 05:15:46;;;;;;;25.90;18.40;;;;;;;10.16;86.50;95533.02;106793;1274;25388;-82
2023/10/24 05:18:15;;;;;;;13.70;9.20;;;;;;;10.20;86.77;95528.38;106820;1274;25355;-82
2023/10/24 05:20:43;;;;;;;14.90;6.50;;;;;;;10.26;86.57;95523.00;106792;1274;24694;-82
2023/10/24 05:23:11;;;;;;;9.60;5.90;;;;;;;10.31;86.31;95515.90;106793;1274;25421;-82
2023/10/24 05:25:41;;;;;;;13.10;6.70;;;;;;;10.35;86.12;95508.09;106769;1274;22530;-82
2023/10/24 05:28:11;;;;;;;10.80;5.40;;;;;;;10.36;86.00;95523.01;106744;1274;25355;-83
2023/10/24 05:30:39;;;;;;;7.00;4.00;;;;;;;10.43;86.03;95530.27;106800;1274;22940;-82
2023/10/24 05:33:07;;;;;;;8.30;4.60;;;;;;;10.46;85.42;95523.01;106906;1274;23478;-83
2023/10/24 05:35:35;;;;;;;4.50;3.60;;;;;;;10.46;85.47;95523.19;106821;1274;22530;-83
2023/10/24 05:38:03;;;;;;;5.80;2.40;;;;;;;10.55;86.42;95523.17;106757;1274;24253;-82
2023/10/24 05:40:31;;;;;;;8.50;5.30;;;;;;;10.64;86.64;95520.19;106736;1274;24400;-83
2023/10/24 05:42:59;;;;;;;7.80;5.80;;;;;;;10.69;86.61;95518.67;106796;1274;25490;-83
2023/10/24 05:45:28;;;;;;;4.90;4.10;;;;;;;10.73;86.37;95522.11;106767;1274;25507;-83
2023/10/24 05:47:56;;;;;;;5.70;5.00;;;;;;;10.80;86.48;95528.31;106685;1274;25492;-82
2023/10/24 05:50:24;;;;;;;10.50;8.00;;;;;;;10.89;86.30;95534.64;106737;1274;25371;-82
2023/10/24 05:52:52;;;;;;;6.90;3.80;;;;;;;10.92;86.15;95533.52;106760;1274;22657;-82
2023/10/24 05:55:20;;;;;;;6.20;3.60;;;;;;;11.00;85.96;95531.41;106757;1274;25505;-82
2023/10/24 05:57:48;;;;;;;8.60;5.80;;;;;;;11.05;85.92;95532.00;106850;1274;25647;-83
2023/10/24 06:00:17;;;;;;;8.50;3.40;;;;;;;11.10;85.80;95525.91;107099;1274;22537;-86
2023/10/24 06:02:45;;;;;;;12.80;6.00;;;;;;;11.16;85.47;95520.51;106816;1274;22519;-82
2023/10/24 06:05:13;;;;;;;2.80;1.50;;;;;;;11.23;85.78;95521.56;106775;1274;22798;-84
2023/10/24 06:07:41;;;;;;;4.00;2.50;;;;;;;11.32;85.78;95526.84;106832;1274;22639;-85
2023/10/24 06:10:09;;;;;;;7.90;4.80;;;;;;;11.36;85.48;95525.15;106750;1274;22512;-83
2023/10/24 06:12:38;;;;;;;11.40;7.30;;;;;;;11.44;85.95;95523.75;106787;1274;22642;-81
2023/10/24 06:15:06;;;;;;;23.60;8.20;;;;;;;11.56;85.54;95530.69;106985;1274;22518;-84
2023/10/24 06:17:35;;;;;;;223.10;99.80;;;;;;;11.58;84.82;95526.77;106938;1274;22534;-83
2023/10/24 06:20:04;;;;;;;130.40;59.30;;;;;;;11.56;84.75;95529.27;107060;1274;25348;-83
2023/10/24 06:22:32;;;;;;;80.10;39.80;;;;;;;11.56;84.60;95537.02;106922;1274;22527;-85
2023/10/24 06:25:00;;;;;;;298.10;116.20;;;;;;;11.60;84.85;95540.99;107002;1274;25116;-81
2023/10/24 06:27:29;;;;;;;126.30;49.80;;;;;;;11.64;84.63;95542.30;106846;1274;22676;-84
2023/10/24 06:32:04;;;;;;;83.80;36.60;;;;;;;11.77;84.46;95531.95;103864;1304;544927;-80
2023/10/24 06:34:33;;;;;;;235.90;86.30;;;;;;;11.93;84.85;95532.27;106359;1286;23898;-79
2023/10/24 06:37:03;;;;;;;368.40;121.90;;;;;;;12.18;84.67;95534.30;106939;1275;22520;-79
2023/10/24 06:39:32;;;;;;;200.00;66.80;;;;;;;12.35;83.43;95524.52;106813;1275;23928;-78
2023/10/24 06:42:01;;;;;;;57.20;21.80;;;;;;;12.49;82.92;95520.09;106761;1272;22525;-77
2023/10/24 06:44:30;;;;;;;52.30;19.60;;;;;;;12.65;82.61;95510.13;106652;1275;22530;-78
2023/10/24 06:46:58;;;;;;;16.20;6.70;;;;;;;12.80;82.37;95507.58;106895;1272;22539;-80
2023/10/24 06:49:26;;;;;;;10.90;5.20;;;;;;;13.00;82.17;95499.92;106724;1272;22525;-81
2023/10/24 06:51:55;;;;;;;6.30;4.20;;;;;;;13.19;81.73;95492.13;107007;1272;25362;-82
2023/10/24 06:54:23;;;;;;;4.00;2.90;;;;;;;13.31;81.43;95494.08;107157;1272;24282;-79
2023/10/24 06:56:51;;;;;;;3.70;2.10;;;;;;;13.37;80.83;95489.64;107240;1272;22510;-81
2023/10/24 06:59:19;;;;;;;28.00;11.20;;;;;;;13.41;80.64;95492.02;107109;1272;22632;-81
2023/10/24 07:01:48;;;;;;;40.00;14.50;;;;;;;13.40;80.30;95491.34;107158;1271;22525;-80
2023/10/24 07:04:16;;;;;;;40.50;17.60;;;;;;;13.41;80.67;95489.02;107290;1272;24968;-80
2023/10/24 07:06:44;;;;;;;29.90;12.20;;;;;;;13.46;81.31;95491.16;107254;1271;22527;-81
2023/10/24 07:09:12;;;;;;;37.30;16.40;;;;;;;13.51;81.08;95492.07;107120;1271;22528;-79
2023/10/24 07:11:41;;;;;;;19.80;9.50;;;;;;;13.57;81.14;95488.15;106917;1272;24250;-79
2023/10/24 07:14:09;;;;;;;5.40;2.90;;;;;;;13.68;81.38;95476.14;107096;1271;22516;-83
2023/10/24 07:16:37;;;;;;;4.80;2.30;;;;;;;13.78;80.99;95475.78;107255;1271;22524;-81
2023/10/24 07:19:05;;;;;;;4.40;2.20;;;;;;;13.85;80.16;95474.14;107368;1272;24300;-77
2023/10/24 07:21:33;;;;;;;5.60;2.00;;;;;;;13.96;80.44;95467.95;107144;1271;24662;-78
2023/10/24 07:24:02;;;;;;;4.30;2.10;;;;;;;14.07;79.74;95465.26;107077;1271;25427;-80
2023/10/24 07:26:30;;;;;;;2.80;1.50;;;;;;;14.22;79.91;95462.46;107167;1272;22539;-81
2023/10/24 07:28:59;;;;;;;4.80;2.60;;;;;;;14.36;79.27;95457.20;107156;1268;22523;-82
2023/10/24 07:31:27;;;;;;;4.00;2.10;;;;;;;14.46;78.85;95458.09;107093;1272;22515;-81
2023/10/24 07:33:55;;;;;;;3.90;2.20;;;;;;;14.57;78.03;95457.00;107434;1266;24339;-80
2023/10/24 07:36:26;;;;;;;4.30;3.30;;;;;;;14.62;77.88;95455.91;107592;1272;23940;-80
2023/10/24 07:38:54;;;;;;;10.30;4.80;;;;;;;14.73;78.07;95457.13;107328;1272;22535;-80
2023/10/24 07:41:22;;;;;;;8.20;4.00;;;;;;;14.80;77.18;95456.70;107592;1270;24365;-81
2023/10/24 07:43:51;;;;;;;4.60;3.80;;;;;;;14.88;77.52;95459.92;106926;1272;22730;-81
2023/10/24 07:46:22;;;;;;;5.10;4.00;;;;;;;14.90;76.19;95458.95;107400;1272;24244;-81
2023/10/24 07:48:52;;;;;;;8.20;4.40;;;;;;;14.93;76.69;95459.73;107624;1272;22554;-80
2023/10/24 07:51:21;;;;;;;7.00;4.60;;;;;;;14.94;76.54;95459.35;107350;1272;25586;-81
2023/10/24 07:53:49;;;;;;;14.50;4.10;;;;;;;14.94;76.28;95464.48;107279;1272;22517;-78
2023/10/24 07:56:17;;;;;;;8.70;3.90;;;;;;;14.91;75.85;95450.25;107385;1272;25391;-81
2023/10/24 07:58:46;;;;;;;5.40;3.60;;;;;;;14.90;75.02;95454.70;107511;1272;23691;-80
2023/10/24 08:01:14;;;;;;;7.00;3.30;;;;;;;14.92;75.20;95442.94;107361;1270;25425;-80
2023/10/24 08:03:43;;;;;;;6.10;3.70;;;;;;;14.97;75.04;95433.73;107678;1272;25466;-82
2023/10/24 08:06:11;;;;;;;5.10;3.00;;;;;;;15.02;75.33;95432.30;107272;1272;22516;-81
2023/10/24 08:08:39;;;;;;;4.00;3.10;;;;;;;15.08;75.07;95418.05;107102;1272;22628;-81
2023/10/24 08:11:07;;;;;;;5.70;3.00;;;;;;;15.12;75.11;95417.37;107166;1272;22671;-82
2023/10/24 08:13:36;;;;;;;4.30;2.90;;;;;;;15.15;74.88;95421.17;107071;1272;25444;-82
2023/10/24 08:16:05;;;;;;;5.80;3.10;;;;;;;15.14;74.22;95425.10;107037;1272;24039;-81
2023/10/24 08:18:36;;;;;;;5.50;2.20;;;;;;;15.15;73.90;95424.54;107138;1272;22637;-79
2023/10/24 08:21:07;;;;;;;5.60;2.30;;;;;;;15.22;74.02;95420.55;107001;1262;23916;-80
2023/10/24 08:23:35;;;;;;;10.80;4.90;;;;;;;15.31;73.99;95428.34;107050;1272;22514;-80
2023/10/24 08:26:03;;;;;;;9.00;4.00;;;;;;;15.39;73.87;95424.66;107158;1272;22543;-80
2023/10/24 08:28:32;;;;;;;11.30;4.70;;;;;;;15.49;73.68;95418.20;107084;1272;22907;-80
2023/10/24 08:31:00;;;;;;;10.20;4.30;;;;;;;15.61;73.82;95423.92;107067;1272;24268;-79
2023/10/24 08:33:28;;;;;;;8.20;4.10;;;;;;;15.68;73.36;95427.20;107097;1272;25236;-80
2023/10/24 08:35:56;;;;;;;7.40;3.70;;;;;;;15.79;73.70;95420.77;107063;1272;25442;-81
2023/10/24 08:38:25;;;;;;;10.00;5.20;;;;;;;15.91;73.71;95417.58;107072;1272;22569;-81
2023/10/24 08:40:53;;;;;;;7.30;4.00;;;;;;;16.02;72.72;95413.02;107027;1272;24390;-78
2023/10/24 08:43:22;;;;;;;10.30;2.50;;;;;;;16.11;72.39;95412.13;107160;1267;25245;-80
2023/10/24 08:45:51;;;;;;;9.90;2.90;;;;;;;16.20;72.05;95417.36;107380;1272;22969;-80
2023/10/24 08:48:20;;;;;;;5.60;2.30;;;;;;;16.33;72.35;95414.52;107276;1272;22542;-84
2023/10/24 08:50:48;;;;;;;4.60;2.60;;;;;;;16.45;72.05;95418.77;107189;1272;24215;-79
2023/10/24 08:53:16;;;;;;;5.30;2.70;;;;;;;16.49;70.10;95417.91;107155;1272;24424;-78
2023/10/24 08:55:57;;;;;;;5.50;3.60;;;;;;;16.46;70.05;95415.02;107034;1272;22524;-78
2023/10/24 08:58:28;;;;;;;9.00;3.90;;;;;;;16.49;70.22;95413.98;107045;1272;22524;-79
2023/10/24 09:00:59;;;;;;;5.20;3.30;;;;;;;16.50;70.31;95417.67;106834;1272;22536;-82
2023/10/24 09:03:28;;;;;;;6.60;3.40;;;;;;;16.43;70.21;95420.62;106853;1273;22659;-78
2023/10/24 09:05:58;;;;;;;5.40;3.40;;;;;;;16.47;70.62;95419.23;106881;1272;25291;-77
2023/10/24 09:08:26;;;;;;;5.40;3.40;;;;;;;16.54;70.47;95415.72;107082;1272;22532;-78
2023/10/24 09:10:56;;;;;;;11.10;6.80;;;;;;;16.59;70.35;95415.50;106829;1272;23291;-81
2023/10/24 09:13:25;;;;;;;4.70;3.60;;;;;;;16.59;70.61;95419.05;107232;1272;22524;-80
2023/10/24 09:16:10;;;;;;;5.40;3.20;;;;;;;16.69;71.04;95418.42;107130;1272;25334;-79
2023/10/24 09:18:40;;;;;;;6.40;3.30;;;;;;;16.80;70.22;95413.51;107174;1273;22539;-78
2023/10/24 09:21:09;;;;;;;8.90;5.50;;;;;;;16.90;70.27;95411.47;107104;1273;22748;-80
2023/10/24 09:23:37;;;;;;;6.00;3.10;;;;;;;16.94;69.38;95408.05;106884;1273;22520;-79
2023/10/24 09:26:11;;;;;;;6.40;2.80;;;;;;;16.96;69.08;95401.23;106786;1273;24384;-80
2023/10/24 09:28:39;;;;;;;4.50;2.70;;;;;;;17.04;69.02;95398.54;106994;1273;22517;-80
2023/10/24 09:31:10;;;;;;;6.50;2.70;;;;;;;17.16;68.94;95394.26;106874;1273;22523;-82
2023/10/24 09:33:39;;;;;;;3.60;2.20;;;;;;;17.24;67.70;95389.21;107156;1273;22639;-82
2023/10/24 09:36:07;;;;;;;5.30;2.20;;;;;;;17.36;68.12;95394.70;107052;1273;22645;-81
2023/10/24 09:38:45;;;;;;;6.60;2.40;;;;;;;17.55;67.00;95390.58;106955;1273;25894;-80
2023/10/24 09:41:14;;;;;;;3.20;2.30;;;;;;;17.69;65.98;95385.09;106994;1273;25242;-83
2023/10/24 09:43:48;;;;;;;5.60;2.30;;;;;;;17.77;66.42;95379.17;107126;1272;25264;-83
2023/10/24 09:46:21;;;;;;;4.50;2.40;;;;;;;17.90;66.65;95375.89;106894;1273;22536;-82
2023/10/24 09:48:50;;;;;;;;;;;;;;;18.06;66.32;95375.05;107204;1272;24349;-82
2023/10/24 09:51:21;;;;;;;4.40;2.50;;;;;;;18.10;65.50;95375.89;107244;1272;24310;-83
2023/10/24 09:53:49;;;;;;;4.10;2.30;;;;;;;18.18;64.94;95378.55;107074;1273;22527;-79
2023/10/24 09:56:20;;;;;;;8.10;2.20;;;;;;;18.29;64.65;95374.23;107169;1273;25375;-82
2023/10/24 09:58:49;;;;;;;21.40;5.90;;;;;;;18.46;64.45;95369.77;107227;1272;24370;-84
2023/10/24 10:01:17;;;;;;;13.00;6.70;;;;;;;18.57;63.34;95360.95;106868;1273;22624;-83
2023/10/24 10:03:47;;;;;;;20.00;9.60;;;;;;;18.56;62.71;95361.22;107215;1273;24314;-81
2023/10/24 10:06:17;;;;;;;13.00;7.30;;;;;;;18.47;62.66;95360.09;107120;1272;22537;-81
2023/10/24 10:09:00;;;;;;;8.40;3.10;;;;;;;18.42;62.38;95352.69;107057;1273;22534;-84
2023/10/24 10:11:31;;;;;;;5.40;2.30;;;;;;;18.35;62.31;95349.84;106861;1272;25338;-82
2023/10/24 10:14:07;;;;;;;7.50;2.60;;;;;;;18.31;63.28;95348.09;107102;1273;25252;-82
2023/10/24 10:16:51;;;;;;;7.60;3.30;;;;;;;18.22;62.94;95354.14;107072;1272;24356;-82
2023/10/24 10:19:47;;;;;;;7.40;3.80;;;;;;;18.07;63.58;95351.36;107089;1263;22539;-82
2023/10/24 10:22:50;;;;;;;6.20;3.90;;;;;;;17.95;63.98;95356.40;107097;1272;22636;-81
2023/10/24 10:25:47;;;;;;;7.10;2.30;;;;;;;17.89;63.89;95349.08;107209;1272;22483;-82
2023/10/24 10:28:22;;;;;;;4.80;2.70;;;;;;;17.86;63.98;95353.84;107150;1272;24218;-81
2023/10/24 10:31:00;;;;;;;3.70;2.60;;;;;;;17.88;64.01;95350.52;107124;1273;22733;-82
2023/10/24 10:33:49;;;;;;;3.40;2.50;;;;;;;17.88;63.87;95338.80;107060;1272;22544;-82
2023/10/24 10:36:17;;;;;;;5.60;2.70;;;;;;;18.01;64.01;95335.10;107147;1273;22524;-81
2023/10/24 10:38:49;;;;;;;5.60;3.20;;;;;;;18.05;62.97;95331.17;107187;1273;24050;-83
2023/10/24 10:41:21;;;;;;;4.40;2.80;;;;;;;18.03;62.61;95336.23;106845;1272;25415;-81
2023/10/24 10:43:53;;;;;;;3.50;2.50;;;;;;;18.04;62.18;95332.09;107055;1272;22590;-82
2023/10/24 10:46:25;;;;;;;22.20;5.00;;;;;;;18.11;62.64;95325.35;107136;1272;25210;-82
2023/10/24 10:49:03;;;;;;;8.30;2.90;;;;;;;18.25;63.24;95314.05;107092;1272;22550;-81
2023/10/24 10:51:38;;;;;;;5.70;2.30;;;;;;;18.31;61.72;95309.32;106988;1273;22569;-80
2023/10/24 10:54:20;;;;;;;6.20;2.80;;;;;;;18.31;62.03;95306.26;106865;1273;22647;-80
2023/10/24 10:56:49;;;;;;;10.50;2.70;;;;;;;18.29;61.60;95304.08;107062;1273;25485;-80
2023/10/24 10:59:31;;;;;;;6.20;2.80;;;;;;;18.32;61.86;95304.80;107081;1272;25271;-81
2023/10/24 11:02:30;;;;;;;5.80;2.50;;;;;;;18.28;61.09;95306.46;107130;1263;22612;-79
2023/10/24 11:04:59;;;;;;;5.30;2.80;;;;;;;18.20;61.52;95310.23;106908;1272;22614;-81
2023/10/24 11:08:01;;;;;;;4.40;2.20;;;;;;;18.23;61.64;95314.19;107155;1272;22731;-82
2023/10/24 11:10:48;;;;;;;5.40;2.60;;;;;;;18.46;61.86;95307.27;106646;1273;22524;-83
2023/10/24 11:13:43;;;;;;;4.80;2.50;;;;;;;18.64;62.18;95298.62;107067;1272;22531;-82
2023/10/24 11:16:14;;;;;;;3.40;2.20;;;;;;;18.82;61.03;95291.38;107012;1272;22633;-81
2023/10/24 11:19:02;;;;;;;5.10;2.60;;;;;;;19.14;60.59;95281.08;107095;1260;24349;-81
2023/10/24 11:21:30;;;;;;;5.60;2.40;;;;;;;19.53;59.12;95272.02;107291;1273;22520;-81
2023/10/24 11:23:59;;;;;;;4.50;2.50;;;;;;;19.99;58.50;95268.77;106702;1272;22518;-83
2023/10/24 11:26:27;;;;;;;4.90;2.30;;;;;;;20.47;57.55;95264.22;107103;1272;22785;-82
2023/10/24 11:28:56;;;;;;;5.50;2.40;;;;;;;20.94;57.51;95261.06;107108;1272;22531;-82
2023/10/24 11:31:26;;;;;;;5.90;2.60;;;;;;;21.56;55.92;95263.22;107208;1272;25383;-83
2023/10/24 11:33:57;;;;;;;5.80;2.30;;;;;;;22.17;55.12;95256.74;107213;1272;25350;-82
2023/10/24 11:36:27;;;;;;;5.40;2.30;;;;;;;22.67;52.40;95253.95;107056;1273;24298;-84
2023/10/24 11:38:58;;;;;;;5.00;2.50;;;;;;;22.83;51.40;95263.02;107077;1272;22759;-82
2023/10/24 11:41:27;;;;;;;5.90;2.60;;;;;;;22.77;51.02;95259.91;107137;1272;24281;-83